XAX567 RJFF-WMKK
Flight info
| Callsign | XAX567 |
|---|---|
| Flight time | N/A |
| Altitude | 38000 |
| Route | DGC V28 FUE Z40 IGMON A1 APU B1 ANLOT W4 TNN A577 KABAM/N0469F360 N892 MIKIN/N0468F390 N892 MIGUG/K0863F390 N892 MELAS/N0463F400 N892 KIBOL/N0409F280 G334 SAROX SAROX1J |
| Aircraft | A339/H-SADE1E2E3GHIJ3J5M1P2RWXY/LB2D1 |
Departure
| Time | 2026-05-07 13:48 |
|---|---|
| Airport | Fukuoka Airport (RJFF) |
Arrival
| Time | N/A |
|---|---|
| Airport | Kuala Lumpur International Airport (WMKK) |
| Time | Latitude | Longitude | Altitude | Speed | Heading |
|---|---|---|---|---|---|
| 2026-05-07 13:37 | 33.58000 | 130.45131 | 40 ft | 0 kts | 62° |
| 2026-05-07 13:38 | 33.58000 | 130.45132 | 40 ft | 1 kts | 64° |
| 2026-05-07 13:39 | 33.58007 | 130.45148 | 40 ft | 10 kts | 64° |
| 2026-05-07 13:39 | 33.58024 | 130.45240 | 40 ft | 21 kts | 92° |
| 2026-05-07 13:39 | 33.57907 | 130.45337 | 40 ft | 29 kts | 147° |
| 2026-05-07 13:40 | 33.57674 | 130.45465 | 42 ft | 39 kts | 147° |
| 2026-05-07 13:40 | 33.57535 | 130.45642 | 42 ft | 28 kts | 152° |
| 2026-05-07 13:40 | 33.57446 | 130.45693 | 44 ft | 7 kts | 63° |
| 2026-05-07 13:40 | 33.57448 | 130.45698 | 44 ft | 0 kts | 62° |
| 2026-05-07 13:43 | 33.57449 | 130.45700 | 44 ft | 2 kts | 62° |
| 2026-05-07 13:44 | 33.57511 | 130.45778 | 45 ft | 23 kts | 25° |
| 2026-05-07 13:44 | 33.57589 | 130.45749 | 45 ft | 0 kts | 334° |
| 2026-05-07 13:47 | 33.57743 | 130.45644 | 44 ft | 65 kts | 330° |
| 2026-05-07 13:47 | 33.58362 | 130.45218 | 39 ft | 138 kts | 329° |
| 2026-05-07 13:48 | 33.59351 | 130.44540 | 178 ft | 178 kts | 329° |
| 2026-05-07 13:48 | 33.60416 | 130.43804 | 1053 ft | 176 kts | 329° |
| 2026-05-07 13:48 | 33.61485 | 130.43082 | 1875 ft | 177 kts | 328° |
| 2026-05-07 13:48 | 33.62604 | 130.42326 | 2411 ft | 193 kts | 327° |
| 2026-05-07 13:49 | 33.63837 | 130.41497 | 2806 ft | 213 kts | 327° |
| 2026-05-07 13:49 | 33.65110 | 130.40472 | 3125 ft | 229 kts | 312° |
| 2026-05-07 13:49 | 33.65967 | 130.38825 | 3396 ft | 240 kts | 284° |
| 2026-05-07 13:49 | 33.66061 | 130.36842 | 3832 ft | 241 kts | 256° |
| 2026-05-07 13:50 | 33.65346 | 130.35044 | 4391 ft | 240 kts | 231° |
| 2026-05-07 13:50 | 33.64282 | 130.33485 | 4900 ft | 244 kts | 233° |
| 2026-05-07 13:50 | 33.63187 | 130.31940 | 5383 ft | 246 kts | 218° |
| 2026-05-07 13:50 | 33.61618 | 130.31115 | 5912 ft | 251 kts | 192° |
| 2026-05-07 13:51 | 33.59872 | 130.31189 | 6030 ft | 259 kts | 171° |
| 2026-05-07 13:51 | 33.58088 | 130.31604 | 5999 ft | 257 kts | 172° |
| 2026-05-07 13:51 | 33.56351 | 130.32000 | 6001 ft | 259 kts | 172° |
| 2026-05-07 13:51 | 33.54589 | 130.32417 | 5996 ft | 258 kts | 169° |
| 2026-05-07 13:52 | 33.52950 | 130.33414 | 5999 ft | 269 kts | 143° |
| 2026-05-07 13:52 | 33.51471 | 130.34957 | 5996 ft | 295 kts | 142° |
| 2026-05-07 13:52 | 33.49871 | 130.36606 | 6002 ft | 320 kts | 142° |
| 2026-05-07 13:52 | 33.48136 | 130.38382 | 5994 ft | 331 kts | 142° |
| 2026-05-07 13:53 | 33.46384 | 130.40175 | 5998 ft | 332 kts | 142° |
| 2026-05-07 13:53 | 33.44631 | 130.41982 | 5996 ft | 332 kts | 142° |
| 2026-05-07 13:53 | 33.42894 | 130.43760 | 5990 ft | 328 kts | 142° |
| 2026-05-07 13:53 | 33.41148 | 130.45571 | 5992 ft | 333 kts | 142° |
| 2026-05-07 13:54 | 33.39402 | 130.47372 | 5996 ft | 330 kts | 142° |
| 2026-05-07 13:54 | 33.37656 | 130.49163 | 5986 ft | 332 kts | 142° |
| 2026-05-07 13:54 | 33.35904 | 130.50961 | 5990 ft | 331 kts | 142° |
| 2026-05-07 13:54 | 33.34160 | 130.52752 | 5992 ft | 331 kts | 142° |
| 2026-05-07 13:55 | 33.32406 | 130.54550 | 5988 ft | 332 kts | 142° |
| 2026-05-07 13:55 | 33.30648 | 130.56350 | 5989 ft | 332 kts | 142° |
| 2026-05-07 13:55 | 33.28897 | 130.58144 | 5988 ft | 332 kts | 142° |
| 2026-05-07 13:55 | 33.27143 | 130.59939 | 5990 ft | 332 kts | 142° |
| 2026-05-07 13:56 | 33.25388 | 130.61733 | 5980 ft | 332 kts | 142° |
| 2026-05-07 13:56 | 33.23643 | 130.63521 | 5985 ft | 332 kts | 142° |
| 2026-05-07 13:56 | 33.21890 | 130.65318 | 5988 ft | 332 kts | 142° |
| 2026-05-07 13:56 | 33.20142 | 130.67110 | 5983 ft | 331 kts | 142° |
| 2026-05-07 13:57 | 33.18393 | 130.68904 | 5987 ft | 332 kts | 142° |
| 2026-05-07 13:57 | 33.16640 | 130.70700 | 5990 ft | 332 kts | 142° |
| 2026-05-07 13:57 | 33.14889 | 130.72490 | 5988 ft | 331 kts | 142° |
| 2026-05-07 13:57 | 33.13137 | 130.74282 | 5995 ft | 331 kts | 142° |
| 2026-05-07 13:58 | 33.11431 | 130.76031 | 5997 ft | 312 kts | 142° |
| 2026-05-07 13:58 | 33.09852 | 130.77666 | 5999 ft | 289 kts | 142° |
| 2026-05-07 13:58 | 33.08391 | 130.79188 | 6009 ft | 274 kts | 142° |
| 2026-05-07 13:58 | 33.06936 | 130.80707 | 6011 ft | 279 kts | 142° |
| 2026-05-07 13:59 | 33.05484 | 130.82224 | 6010 ft | 277 kts | 142° |
| 2026-05-07 13:59 | 33.04042 | 130.83735 | 6015 ft | 276 kts | 142° |
| 2026-05-07 13:59 | 33.02584 | 130.85256 | 6015 ft | 279 kts | 142° |
| 2026-05-07 13:59 | 33.01134 | 130.86769 | 6016 ft | 278 kts | 142° |
| 2026-05-07 14:00 | 32.99675 | 130.88289 | 6022 ft | 278 kts | 142° |
| 2026-05-07 14:00 | 32.98220 | 130.89798 | 6023 ft | 279 kts | 142° |
| 2026-05-07 14:00 | 32.96748 | 130.91314 | 6019 ft | 279 kts | 142° |
| 2026-05-07 14:00 | 32.95291 | 130.92823 | 6025 ft | 278 kts | 142° |
| 2026-05-07 14:01 | 32.93835 | 130.94335 | 6024 ft | 279 kts | 142° |
| 2026-05-07 14:01 | 32.92359 | 130.95872 | 6030 ft | 286 kts | 142° |
| 2026-05-07 14:01 | 32.90808 | 130.97474 | 6031 ft | 311 kts | 142° |
| 2026-05-07 14:01 | 32.89263 | 130.99044 | 6025 ft | 297 kts | 142° |
| 2026-05-07 14:02 | 32.87752 | 131.00597 | 6025 ft | 276 kts | 142° |
| 2026-05-07 14:02 | 32.86148 | 131.01856 | 6031 ft | 274 kts | 161° |
| 2026-05-07 14:02 | 32.84331 | 131.02252 | 6019 ft | 267 kts | 185° |
| 2026-05-07 14:02 | 32.82562 | 131.01708 | 6029 ft | 264 kts | 210° |
| 2026-05-07 14:03 | 32.81179 | 131.00301 | 6147 ft | 263 kts | 235° |
| 2026-05-07 14:03 | 32.80513 | 130.98330 | 6554 ft | 260 kts | 261° |
| 2026-05-07 14:03 | 32.80304 | 130.96188 | 7160 ft | 262 kts | 262° |
| 2026-05-07 14:03 | 32.80087 | 130.94027 | 7766 ft | 263 kts | 262° |
| 2026-05-07 14:04 | 32.79866 | 130.91869 | 8377 ft | 264 kts | 262° |
| 2026-05-07 14:04 | 32.79636 | 130.89695 | 9011 ft | 266 kts | 262° |
| 2026-05-07 14:04 | 32.79400 | 130.87512 | 9651 ft | 267 kts | 262° |
| 2026-05-07 14:04 | 32.79161 | 130.85313 | 10258 ft | 268 kts | 262° |
| 2026-05-07 14:05 | 32.78949 | 130.83124 | 10839 ft | 270 kts | 265° |
| 2026-05-07 14:05 | 32.78853 | 130.80874 | 11442 ft | 271 kts | 266° |
| 2026-05-07 14:05 | 32.78792 | 130.78637 | 12051 ft | 271 kts | 266° |
| 2026-05-07 14:05 | 32.78719 | 130.76404 | 12674 ft | 271 kts | 266° |
| 2026-05-07 14:06 | 32.78624 | 130.74169 | 13307 ft | 270 kts | 265° |
| 2026-05-07 14:06 | 32.78515 | 130.71942 | 13920 ft | 270 kts | 265° |
| 2026-05-07 14:06 | 32.78397 | 130.69722 | 14501 ft | 269 kts | 264° |
| 2026-05-07 14:06 | 32.78277 | 130.67515 | 15082 ft | 267 kts | 264° |
| 2026-05-07 14:07 | 32.78156 | 130.65317 | 15676 ft | 266 kts | 264° |
| 2026-05-07 14:07 | 32.78036 | 130.63137 | 16277 ft | 264 kts | 264° |
| 2026-05-07 14:07 | 32.77916 | 130.60975 | 16890 ft | 261 kts | 264° |
| 2026-05-07 14:07 | 32.77799 | 130.58837 | 17517 ft | 258 kts | 263° |
| 2026-05-07 14:08 | 32.77684 | 130.56731 | 18159 ft | 254 kts | 263° |
| 2026-05-07 14:08 | 32.77570 | 130.54659 | 18723 ft | 249 kts | 263° |
| 2026-05-07 14:08 | 32.77457 | 130.52628 | 19281 ft | 244 kts | 263° |
| 2026-05-07 14:08 | 32.77345 | 130.50643 | 19849 ft | 237 kts | 263° |
| 2026-05-07 14:09 | 32.77236 | 130.48709 | 20319 ft | 235 kts | 263° |
| 2026-05-07 14:09 | 32.77121 | 130.46737 | 20582 ft | 243 kts | 263° |
| 2026-05-07 14:09 | 32.77003 | 130.44704 | 20787 ft | 252 kts | 263° |
| 2026-05-07 14:09 | 32.76881 | 130.42584 | 20977 ft | 261 kts | 263° |
| 2026-05-07 14:10 | 32.76757 | 130.40394 | 21234 ft | 269 kts | 263° |
| 2026-05-07 14:10 | 32.76631 | 130.38146 | 21495 ft | 277 kts | 263° |
| 2026-05-07 14:10 | 32.76500 | 130.35834 | 21740 ft | 284 kts | 263° |
| 2026-05-07 14:10 | 32.76366 | 130.33466 | 21998 ft | 291 kts | 264° |
| 2026-05-07 14:11 | 32.76227 | 130.31039 | 22250 ft | 298 kts | 264° |
| 2026-05-07 14:11 | 32.76083 | 130.28564 | 22524 ft | 304 kts | 264° |
| 2026-05-07 14:11 | 32.75937 | 130.26027 | 22784 ft | 312 kts | 264° |
| 2026-05-07 14:11 | 32.75786 | 130.23429 | 23056 ft | 319 kts | 264° |
| 2026-05-07 14:12 | 32.75639 | 130.20779 | 23325 ft | 325 kts | 264° |
| 2026-05-07 14:12 | 32.75485 | 130.18073 | 23584 ft | 331 kts | 264° |
| 2026-05-07 14:12 | 32.75322 | 130.15314 | 23807 ft | 337 kts | 264° |
| 2026-05-07 14:12 | 32.75155 | 130.12515 | 24032 ft | 343 kts | 264° |
| 2026-05-07 14:13 | 32.74985 | 130.09657 | 24257 ft | 349 kts | 264° |
| 2026-05-07 14:13 | 32.74813 | 130.06748 | 24483 ft | 355 kts | 264° |
| 2026-05-07 14:13 | 32.74638 | 130.03808 | 24712 ft | 361 kts | 264° |
| 2026-05-07 14:13 | 32.74459 | 130.00796 | 24944 ft | 367 kts | 264° |
| 2026-05-07 14:14 | 32.74277 | 129.97751 | 25185 ft | 372 kts | 264° |
| 2026-05-07 14:14 | 32.74090 | 129.94657 | 25405 ft | 378 kts | 264° |
| 2026-05-07 14:14 | 32.73901 | 129.91538 | 25771 ft | 379 kts | 264° |
| 2026-05-07 14:14 | 32.73711 | 129.88407 | 26127 ft | 381 kts | 264° |
| 2026-05-07 14:15 | 32.73519 | 129.85259 | 26481 ft | 383 kts | 264° |
| 2026-05-07 14:15 | 32.73327 | 129.82096 | 26847 ft | 385 kts | 264° |
| 2026-05-07 14:15 | 32.73133 | 129.78924 | 27215 ft | 386 kts | 264° |
| 2026-05-07 14:15 | 32.72961 | 129.75739 | 27586 ft | 387 kts | 266° |
| 2026-05-07 14:16 | 32.72792 | 129.72544 | 27975 ft | 388 kts | 264° |
| 2026-05-07 14:16 | 32.72581 | 129.69354 | 28352 ft | 388 kts | 263° |
| 2026-05-07 14:16 | 32.72361 | 129.66149 | 28739 ft | 389 kts | 263° |
| 2026-05-07 14:16 | 32.72148 | 129.62984 | 29132 ft | 390 kts | 264° |
| 2026-05-07 14:17 | 32.71939 | 129.59773 | 29528 ft | 391 kts | 264° |
| 2026-05-07 14:17 | 32.71734 | 129.56557 | 29938 ft | 391 kts | 264° |
| 2026-05-07 14:17 | 32.71530 | 129.53331 | 30292 ft | 392 kts | 264° |
| 2026-05-07 14:17 | 32.71327 | 129.50111 | 30642 ft | 392 kts | 264° |
| 2026-05-07 14:18 | 32.71121 | 129.46879 | 30996 ft | 392 kts | 264° |
| 2026-05-07 14:18 | 32.70915 | 129.43645 | 31357 ft | 393 kts | 264° |
| 2026-05-07 14:18 | 32.70708 | 129.40412 | 31721 ft | 393 kts | 264° |
| 2026-05-07 14:18 | 32.70499 | 129.37180 | 32088 ft | 393 kts | 264° |
| 2026-05-07 14:19 | 32.70290 | 129.33951 | 32466 ft | 392 kts | 264° |
| 2026-05-07 14:19 | 32.70081 | 129.30731 | 32841 ft | 391 kts | 264° |
| 2026-05-07 14:19 | 32.69870 | 129.27504 | 33225 ft | 391 kts | 264° |
| 2026-05-07 14:19 | 32.69659 | 129.24293 | 33606 ft | 390 kts | 264° |
| 2026-05-07 14:20 | 32.69449 | 129.21091 | 34003 ft | 388 kts | 264° |
| 2026-05-07 14:20 | 32.69309 | 129.18980 | 34227 ft | 387 kts | 264° |
| 2026-05-07 14:20 | 32.69098 | 129.15799 | 34578 ft | 386 kts | 264° |
| 2026-05-07 14:20 | 32.68888 | 129.12636 | 34926 ft | 384 kts | 264° |
| 2026-05-07 14:21 | 32.68678 | 129.09487 | 35297 ft | 381 kts | 264° |
| 2026-05-07 14:21 | 32.68468 | 129.06358 | 35650 ft | 379 kts | 264° |
| 2026-05-07 14:21 | 32.68259 | 129.03253 | 36007 ft | 376 kts | 264° |
| 2026-05-07 14:21 | 32.68051 | 129.00169 | 36379 ft | 373 kts | 264° |
| 2026-05-07 14:22 | 32.67774 | 128.96081 | 36883 ft | 369 kts | 264° |
| 2026-05-07 14:22 | 32.67638 | 128.94084 | 37139 ft | 366 kts | 264° |
| 2026-05-07 14:22 | 32.67323 | 128.91102 | 37523 ft | 362 kts | 258° |
| 2026-05-07 14:22 | 32.66687 | 128.88226 | 37806 ft | 362 kts | 253° |
| 2026-05-07 14:23 | 32.65753 | 128.85432 | 37907 ft | 366 kts | 246° |
| 2026-05-07 14:23 | 32.63006 | 128.80242 | 37978 ft | 381 kts | 234° |
| 2026-05-07 14:24 | 32.59047 | 128.75863 | 37979 ft | 400 kts | 220° |
| 2026-05-07 14:24 | 32.54472 | 128.71964 | 37982 ft | 411 kts | 221° |
| 2026-05-07 14:25 | 32.49797 | 128.67914 | 37980 ft | 421 kts | 221° |
| 2026-05-07 14:25 | 32.45029 | 128.63787 | 37982 ft | 428 kts | 221° |
| 2026-05-07 14:26 | 32.40208 | 128.59627 | 37978 ft | 429 kts | 221° |
| 2026-05-07 14:26 | 32.35378 | 128.55464 | 37983 ft | 430 kts | 221° |
| 2026-05-07 14:27 | 32.30540 | 128.51299 | 37983 ft | 431 kts | 221° |
| 2026-05-07 14:27 | 32.25687 | 128.47126 | 37985 ft | 431 kts | 221° |
| 2026-05-07 14:28 | 32.20837 | 128.42962 | 37983 ft | 431 kts | 221° |
| 2026-05-07 14:28 | 32.12856 | 128.36121 | 37987 ft | 432 kts | 221° |
| 2026-05-07 14:29 | 31.93383 | 128.19499 | 38041 ft | 431 kts | 222° |
| 2026-05-07 14:29 | 31.73869 | 128.02929 | 38026 ft | 432 kts | 222° |
| 2026-05-07 14:30 | 31.54346 | 127.86431 | 37958 ft | 433 kts | 222° |
| 2026-05-07 14:30 | 31.34794 | 127.70004 | 37957 ft | 433 kts | 222° |
| 2026-05-07 14:31 | 31.15187 | 127.53627 | 37967 ft | 433 kts | 222° |
| 2026-05-07 14:31 | 30.95731 | 127.37448 | 37952 ft | 433 kts | 222° |
| 2026-05-07 14:32 | 30.76127 | 127.21223 | 37972 ft | 433 kts | 222° |
| 2026-05-07 14:32 | 30.56487 | 127.05061 | 38002 ft | 433 kts | 222° |
| 2026-05-07 14:33 | 30.36759 | 126.88922 | 37959 ft | 435 kts | 222° |
| 2026-05-07 14:33 | 30.16950 | 126.72774 | 37951 ft | 437 kts | 222° |
| 2026-05-07 14:34 | 29.97112 | 126.56692 | 37962 ft | 438 kts | 222° |
| 2026-05-07 14:34 | 29.77140 | 126.40585 | 38040 ft | 437 kts | 222° |
| 2026-05-07 14:35 | 29.57151 | 126.24544 | 37999 ft | 439 kts | 222° |
| 2026-05-07 14:35 | 29.37052 | 126.08492 | 38050 ft | 439 kts | 222° |
| 2026-05-07 14:36 | 29.16942 | 125.92517 | 38067 ft | 439 kts | 222° |
| 2026-05-07 14:36 | 28.96767 | 125.76561 | 38046 ft | 440 kts | 222° |
| 2026-05-07 14:37 | 28.76570 | 125.60665 | 37955 ft | 442 kts | 222° |
| 2026-05-07 14:37 | 28.46189 | 125.36896 | 37942 ft | 445 kts | 223° |
| 2026-05-07 14:38 | 28.33995 | 125.27401 | 38005 ft | 445 kts | 223° |
| 2026-05-07 14:38 | 28.23764 | 125.19457 | 38001 ft | 447 kts | 223° |
| 2026-05-07 14:39 | 28.13464 | 125.11478 | 37993 ft | 449 kts | 223° |
| 2026-05-07 14:39 | 28.03106 | 125.03473 | 37992 ft | 452 kts | 222° |
| 2026-05-07 14:40 | 27.92661 | 124.95422 | 37994 ft | 456 kts | 222° |
| 2026-05-07 14:40 | 27.82149 | 124.87336 | 37994 ft | 458 kts | 222° |
| 2026-05-07 14:41 | 27.71576 | 124.79219 | 37996 ft | 460 kts | 222° |
| 2026-05-07 14:41 | 27.61372 | 124.70659 | 37995 ft | 450 kts | 232° |
| 2026-05-07 14:42 | 27.53387 | 124.59980 | 37994 ft | 445 kts | 237° |
| 2026-05-07 14:42 | 27.45500 | 124.49219 | 37992 ft | 445 kts | 237° |
| 2026-05-07 14:43 | 27.37598 | 124.38471 | 37979 ft | 446 kts | 237° |
| 2026-05-07 14:43 | 27.29682 | 124.27725 | 38008 ft | 446 kts | 237° |
| 2026-05-07 14:44 | 27.21761 | 124.17001 | 37994 ft | 446 kts | 237° |
| 2026-05-07 14:44 | 27.13812 | 124.06281 | 37965 ft | 447 kts | 237° |
| 2026-05-07 14:45 | 27.05831 | 123.95562 | 37979 ft | 448 kts | 236° |
| 2026-05-07 14:45 | 26.97784 | 123.84891 | 37983 ft | 448 kts | 236° |
| 2026-05-07 14:46 | 26.89722 | 123.74208 | 37978 ft | 449 kts | 236° |
| 2026-05-07 14:46 | 26.81661 | 123.63555 | 37972 ft | 449 kts | 236° |
| 2026-05-07 14:47 | 26.73565 | 123.52881 | 37972 ft | 449 kts | 236° |
| 2026-05-07 14:47 | 26.67138 | 123.44426 | 37972 ft | 449 kts | 236° |
| 2026-05-07 14:48 | 26.63100 | 123.39156 | 37969 ft | 449 kts | 235° |